Time;durP1;ratioP1;P1;durP2;ratioP2;P2;SDS_P1;SDS_P2;PMS_P1;PMS_P2;Temp;Humidity;BMP_temperature;BMP_pressure;BME280_temperature;BME280_humidity;BME280_pressure;Samples;Min_cycle;Max_cycle;Signal;HPM_P1;HPM_P2
2023/09/14 00:01:16;;;;;;;24.87;19.67;;;15.50;99.90;;;;;;4918242;29;20658;-70
2023/09/14 00:03:43;;;;;;;22.27;17.90;;;15.40;99.90;;;;;;4918611;29;20213;-70
2023/09/14 00:06:10;;;;;;;20.10;17.80;;;15.40;99.90;;;;;;4918441;29;20206;-70
2023/09/14 00:08:38;;;;;;;20.30;17.33;;;15.40;99.90;;;;;;4918360;29;20203;-70
2023/09/14 00:11:04;;;;;;;22.50;17.90;;;15.40;99.90;;;;;;4918374;29;20250;-70
2023/09/14 00:13:31;;;;;;;20.83;18.57;;;15.40;99.90;;;;;;4918667;29;20202;-70
2023/09/14 00:15:58;;;;;;;21.60;18.67;;;15.30;99.90;;;;;;4918528;29;20209;-70
2023/09/14 00:18:25;;;;;;;20.87;18.33;;;15.20;99.90;;;;;;4918345;29;20206;-70
2023/09/14 00:20:53;;;;;;;22.40;18.57;;;15.20;99.90;;;;;;4918277;29;20226;-70
2023/09/14 00:23:20;;;;;;;20.73;18.47;;;15.20;99.90;;;;;;4918268;29;20203;-70
2023/09/14 00:25:48;;;;;;;24.25;19.23;;;15.10;99.90;;;;;;4917952;29;20615;-71
2023/09/14 00:28:15;;;;;;;21.27;17.60;;;15.10;99.90;;;;;;4918311;29;20202;-70
2023/09/14 00:30:42;;;;;;;22.20;18.70;;;15.10;99.90;;;;;;4918082;29;20249;-70
2023/09/14 00:33:09;;;;;;;24.43;19.47;;;15.00;99.90;;;;;;4917987;29;20265;-70
2023/09/14 00:35:35;;;;;;;22.60;18.92;;;15.00;99.90;;;;;;4918120;29;20230;-70
2023/09/14 00:38:02;;;;;;;21.40;18.73;;;15.00;99.90;;;;;;4918063;29;20209;-70
2023/09/14 00:40:29;;;;;;;21.77;18.70;;;15.10;99.90;;;;;;4918062;29;20244;-70
2023/09/14 00:42:57;;;;;;;21.33;17.83;;;15.10;99.90;;;;;;4918117;29;20257;-70
2023/09/14 00:45:24;;;;;;;21.53;19.17;;;15.20;99.90;;;;;;4918126;29;20202;-70
2023/09/14 00:47:52;;;;;;;22.43;18.57;;;15.20;99.90;;;;;;4917820;29;20202;-70
2023/09/14 00:50:20;;;;;;;22.50;18.80;;;15.30;99.90;;;;;;4917858;29;20256;-70
2023/09/14 00:52:52;;;;;;;20.00;17.73;;;15.40;99.90;;;;;;4917667;29;20226;-70
2023/09/14 00:55:19;;;;;;;19.77;17.67;;;15.40;99.90;;;;;;4917817;29;20202;-70
2023/09/14 00:57:47;;;;;;;20.27;17.60;;;15.40;99.90;;;;;;4917707;29;20262;-70
2023/09/14 01:00:16;;;;;;;20.93;17.70;;;15.40;99.90;;;;;;4917307;29;20722;-70
2023/09/14 01:02:44;;;;;;;19.83;17.20;;;15.30;99.90;;;;;;4917276;29;20202;-70
2023/09/14 01:05:12;;;;;;;21.70;17.73;;;15.30;99.90;;;;;;4917481;29;20298;-70
2023/09/14 01:07:40;;;;;;;20.20;17.03;;;15.30;99.90;;;;;;4917545;29;20208;-70
2023/09/14 01:10:09;;;;;;;19.97;17.83;;;15.20;99.90;;;;;;4917326;29;20210;-70
2023/09/14 01:12:36;;;;;;;20.97;17.53;;;15.20;99.90;;;;;;4917415;29;20262;-70
2023/09/14 01:15:08;;;;;;;22.83;18.07;;;15.20;99.90;;;;;;4917348;29;20261;-70
2023/09/14 01:17:43;;;;;;;21.47;17.47;;;15.20;99.90;;;;;;4917182;29;20262;-70
2023/09/14 01:20:35;;;;;;;20.57;17.10;;;15.20;99.90;;;;;;4917348;29;20237;-70
2023/09/14 01:23:16;;;;;;;22.03;17.80;;;15.20;99.90;;;;;;4917455;29;20198;-70
2023/09/14 01:25:47;;;;;;;19.43;16.73;;;15.20;99.90;;;;;;4916977;29;20583;-70
2023/09/14 01:28:15;;;;;;;21.07;16.63;;;15.30;99.90;;;;;;4917107;29;20250;-70
2023/09/14 01:30:42;;;;;;;19.23;17.13;;;15.30;99.90;;;;;;4916752;29;20258;-70
2023/09/14 01:33:11;;;;;;;18.23;16.23;;;15.20;99.90;;;;;;4917057;29;20213;-70
2023/09/14 01:35:46;;;;;;;18.50;16.50;;;15.20;99.90;;;;;;4916967;29;20222;-71
2023/09/14 01:38:13;;;;;;;18.40;16.40;;;15.10;99.90;;;;;;4916920;29;20245;-70
2023/09/14 01:40:41;;;;;;;18.77;16.77;;;15.10;99.90;;;;;;4916649;29;20222;-70
2023/09/14 01:43:09;;;;;;;19.08;16.70;;;15.20;99.90;;;;;;4916979;29;20202;-71
2023/09/14 01:45:37;;;;;;;19.07;16.60;;;15.20;99.90;;;;;;4916907;29;20207;-70
2023/09/14 01:48:04;;;;;;;20.55;16.48;;;15.20;99.90;;;;;;4916802;29;20254;-70
2023/09/14 01:50:30;;;;;;;17.40;15.60;;;15.20;99.90;;;;;;4916721;29;20202;-70
2023/09/14 01:52:58;;;;;;;18.17;16.00;;;15.10;99.90;;;;;;4916636;29;20206;-70
2023/09/14 01:55:24;;;;;;;18.90;15.80;;;15.10;99.90;;;;;;4916581;29;20206;-70
2023/09/14 01:57:51;;;;;;;18.37;15.27;;;15.00;99.90;;;;;;4916680;29;20264;-70
2023/09/14 02:00:19;;;;;;;18.97;15.37;;;15.00;99.90;;;;;;4916378;29;20722;-70
2023/09/14 02:02:46;;;;;;;17.10;14.90;;;15.00;99.90;;;;;;4916556;29;20297;-71
2023/09/14 02:05:12;;;;;;;18.47;15.43;;;15.00;99.90;;;;;;4916494;29;20202;-70
2023/09/14 02:07:39;;;;;;;19.33;15.60;;;15.10;99.90;;;;;;4916279;29;20210;-70
2023/09/14 02:10:07;;;;;;;17.45;15.63;;;15.00;99.90;;;;;;4916314;29;20214;-70
2023/09/14 02:12:33;;;;;;;19.17;17.03;;;15.00;99.90;;;;;;4916496;29;20238;-70
2023/09/14 02:15:00;;;;;;;20.30;17.27;;;15.00;99.90;;;;;;4916457;29;20258;-70
2023/09/14 02:17:29;;;;;;;20.50;17.27;;;14.90;99.90;;;;;;4916486;29;20206;-70
2023/09/14 02:19:56;;;;;;;21.30;16.60;;;15.00;99.90;;;;;;4916372;29;20202;-70
2023/09/14 02:22:23;;;;;;;19.77;17.53;;;14.90;99.90;;;;;;4916178;29;20277;-70
2023/09/14 02:24:49;;;;;;;19.83;17.50;;;14.90;99.90;;;;;;4916523;29;20210;-70
2023/09/14 02:27:16;;;;;;;19.20;17.10;;;14.90;99.90;;;;;;4916179;29;20710;-70
2023/09/14 02:29:43;;;;;;;21.10;17.53;;;14.80;99.90;;;;;;4916333;29;20206;-70
2023/09/14 02:32:09;;;;;;;24.67;17.63;;;14.70;99.90;;;;;;4916126;29;20718;-70
2023/09/14 02:34:37;;;;;;;22.47;17.53;;;14.80;99.90;;;;;;4916233;29;20210;-70
2023/09/14 02:37:04;;;;;;;20.80;18.10;;;14.70;99.90;;;;;;4916154;29;20207;-70
2023/09/14 02:39:31;;;;;;;23.57;17.80;;;14.70;99.90;;;;;;4916194;29;20671;-70
2023/09/14 02:41:58;;;;;;;21.37;17.37;;;14.70;99.90;;;;;;4917665;29;20226;-70
2023/09/14 02:44:24;;;;;;;19.63;16.30;;;14.80;99.90;;;;;;4920188;29;20213;-70
2023/09/14 02:46:51;;;;;;;17.63;15.73;;;14.90;99.90;;;;;;4919998;29;20202;-70
2023/09/14 02:49:18;;;;;;;16.73;14.93;;;14.90;99.90;;;;;;4919934;29;20202;-70
2023/09/14 02:51:45;;;;;;;16.87;14.93;;;15.00;99.90;;;;;;4919891;29;20206;-70
2023/09/14 02:54:12;;;;;;;18.03;15.53;;;14.90;99.90;;;;;;4920011;29;20253;-70
2023/09/14 02:56:39;;;;;;;18.52;14.98;;;14.90;99.90;;;;;;4919909;29;20211;-70
2023/09/14 02:59:06;;;;;;;16.40;14.48;;;14.80;99.90;;;;;;4919784;29;20206;-70
2023/09/14 03:01:33;;;;;;;17.07;14.50;;;14.80;99.90;;;;;;4919336;29;20720;-70
2023/09/14 03:04:00;;;;;;;16.97;14.77;;;14.90;99.90;;;;;;4919597;29;20299;-70
2023/09/14 03:06:27;;;;;;;16.77;13.63;;;14.90;99.90;;;;;;4919490;29;20741;-70
2023/09/14 03:08:55;;;;;;;14.77;13.27;;;14.80;99.90;;;;;;4919507;29;20250;-70
2023/09/14 03:11:22;;;;;;;13.63;12.23;;;14.90;99.90;;;;;;4919540;29;20237;-70
2023/09/14 03:13:48;;;;;;;13.77;12.07;;;14.90;99.90;;;;;;4919560;29;20213;-70
2023/09/14 03:16:15;;;;;;;14.03;11.47;;;14.80;99.90;;;;;;4919331;29;20550;-70
2023/09/14 03:18:42;;;;;;;17.03;12.03;;;14.80;99.90;;;;;;4919320;29;20202;-70
2023/09/14 03:21:23;;;;;;;12.00;10.73;;;14.80;99.90;;;;;;4919418;29;20266;-70
2023/09/14 03:23:50;;;;;;;13.30;11.53;;;14.80;99.90;;;;;;4919389;29;20292;-70
2023/09/14 03:26:18;;;;;;;12.93;11.03;;;14.80;99.90;;;;;;4919266;29;20202;-70
2023/09/14 03:28:45;;;;;;;13.07;10.80;;;14.80;99.90;;;;;;4919173;29;20254;-70
2023/09/14 03:31:11;;;;;;;13.37;11.90;;;14.80;99.90;;;;;;4919046;29;20250;-70
2023/09/14 03:33:38;;;;;;;12.07;10.77;;;14.70;99.90;;;;;;4919048;29;20800;-71
2023/09/14 03:36:05;;;;;;;13.20;11.10;;;14.60;99.90;;;;;;4919279;29;20271;-71
2023/09/14 03:38:32;;;;;;;12.53;10.77;;;14.60;99.90;;;;;;4919124;29;20207;-71
2023/09/14 03:40:58;;;;;;;12.97;11.43;;;14.50;99.90;;;;;;4918929;29;20206;-70
2023/09/14 03:43:26;;;;;;;12.13;10.80;;;14.60;99.90;;;;;;4918880;29;20356;-71
2023/09/14 03:45:53;;;;;;;12.60;10.70;;;14.60;99.90;;;;;;4919055;29;20267;-71
2023/09/14 03:48:20;;;;;;;12.73;11.43;;;14.60;99.90;;;;;;4918971;29;20206;-70
2023/09/14 03:50:46;;;;;;;12.10;10.87;;;14.70;99.90;;;;;;4918878;29;20274;-70
2023/09/14 03:53:13;;;;;;;10.80;9.77;;;14.70;99.90;;;;;;4918429;29;20271;-70
2023/09/14 03:55:40;;;;;;;10.70;9.60;;;14.70;99.90;;;;;;4918943;29;20206;-70
2023/09/14 03:58:06;;;;;;;11.40;9.97;;;14.60;99.90;;;;;;4918860;29;20229;-69
2023/09/14 04:00:35;;;;;;;11.20;9.97;;;14.40;99.90;;;;;;4918939;29;20242;-70
2023/09/14 04:03:01;;;;;;;10.33;9.23;;;14.40;99.90;;;;;;4919042;29;20321;-70
2023/09/14 04:05:28;;;;;;;9.97;8.87;;;14.40;99.90;;;;;;4918810;29;20202;-70
2023/09/14 04:07:55;;;;;;;11.57;9.23;;;14.50;99.90;;;;;;4918804;29;20234;-70
2023/09/14 04:10:22;;;;;;;10.73;9.60;;;14.50;99.90;;;;;;4918572;29;20587;-70
2023/09/14 04:12:50;;;;;;;11.60;9.57;;;14.50;99.90;;;;;;4918402;29;20219;-70
2023/09/14 04:15:17;;;;;;;11.57;9.60;;;14.50;99.90;;;;;;4918654;29;20266;-70
2023/09/14 04:17:45;;;;;;;9.73;8.77;;;14.50;99.90;;;;;;4918565;29;20198;-70
2023/09/14 04:20:14;;;;;;;9.97;8.90;;;14.60;99.90;;;;;;4918468;29;20229;-70
2023/09/14 04:22:40;;;;;;;9.27;8.37;;;14.50;99.90;;;;;;4918359;29;20302;-70
2023/09/14 04:25:08;;;;;;;11.83;8.47;;;14.60;99.90;;;;;;4918164;29;20209;-70
2023/09/14 04:27:34;;;;;;;10.07;8.93;;;14.60;99.90;;;;;;4918167;29;20225;-70
2023/09/14 04:30:01;;;;;;;11.40;10.30;;;14.50;99.90;;;;;;4918403;29;20199;-70
2023/09/14 04:32:27;;;;;;;12.40;11.13;;;14.50;99.90;;;;;;4918292;29;20206;-70
2023/09/14 04:34:55;;;;;;;11.00;9.40;;;14.50;99.90;;;;;;4918724;29;20202;-70
2023/09/14 04:37:22;;;;;;;12.20;8.87;;;14.50;99.90;;;;;;4918228;29;20234;-70
2023/09/14 04:39:49;;;;;;;11.63;9.27;;;14.50;99.90;;;;;;4918063;29;20345;-70
2023/09/14 04:42:16;;;;;;;10.53;9.53;;;14.40;99.90;;;;;;4918102;29;20285;-70
2023/09/14 04:44:43;;;;;;;11.20;10.07;;;14.40;99.90;;;;;;4918110;29;20203;-70
2023/09/14 04:47:09;;;;;;;13.57;9.87;;;14.40;99.90;;;;;;4917932;29;20690;-70
2023/09/14 04:49:36;;;;;;;10.80;9.30;;;14.30;99.90;;;;;;4917836;29;20258;-70
2023/09/14 04:52:04;;;;;;;10.17;9.17;;;14.40;99.90;;;;;;4917809;29;20207;-70
2023/09/14 04:54:31;;;;;;;11.23;10.10;;;14.40;99.90;;;;;;4917712;29;20267;-70
2023/09/14 04:56:58;;;;;;;12.97;10.50;;;14.30;99.90;;;;;;4917656;29;20206;-70
2023/09/14 04:59:24;;;;;;;12.40;11.13;;;14.30;99.90;;;;;;4917746;29;20206;-70
2023/09/14 05:01:51;;;;;;;12.07;10.50;;;14.40;99.90;;;;;;4917399;29;20686;-70
2023/09/14 05:04:18;;;;;;;14.50;10.47;;;14.40;99.90;;;;;;4916850;29;20206;-70
2023/09/14 05:06:45;;;;;;;12.97;10.07;;;14.40;99.90;;;;;;4917436;29;20210;-70
2023/09/14 05:09:13;;;;;;;12.23;10.87;;;14.30;99.90;;;;;;4917557;29;20607;-71
2023/09/14 05:11:39;;;;;;;12.97;11.30;;;14.30;99.90;;;;;;4917610;29;20257;-70
2023/09/14 05:14:06;;;;;;;12.77;11.03;;;14.30;99.90;;;;;;4917246;29;20452;-70
2023/09/14 05:16:33;;;;;;;13.43;11.27;;;14.30;99.90;;;;;;4917312;29;20305;-70
2023/09/14 05:18:59;;;;;;;14.47;11.47;;;14.40;99.90;;;;;;4917086;29;20198;-70
2023/09/14 05:21:26;;;;;;;16.90;11.40;;;14.30;99.90;;;;;;4917126;29;20206;-70
2023/09/14 05:23:52;;;;;;;14.17;12.37;;;14.40;99.90;;;;;;4917277;29;20222;-70
2023/09/14 05:26:20;;;;;;;14.27;12.20;;;14.40;99.90;;;;;;4917304;29;20202;-70
2023/09/14 05:28:47;;;;;;;14.00;12.60;;;14.50;99.90;;;;;;4917239;29;20210;-70
2023/09/14 05:31:14;;;;;;;13.30;11.87;;;14.50;99.90;;;;;;4917058;29;20202;-70
2023/09/14 05:33:40;;;;;;;13.40;12.10;;;14.50;99.90;;;;;;4916797;29;20360;-70
2023/09/14 05:36:07;;;;;;;12.67;11.43;;;14.50;99.90;;;;;;4916808;29;20209;-71
2023/09/14 05:38:34;;;;;;;13.63;11.50;;;14.50;99.90;;;;;;4916820;29;20604;-70
2023/09/14 05:41:00;;;;;;;13.13;11.77;;;14.50;99.90;;;;;;4917020;29;20431;-70
2023/09/14 05:43:28;;;;;;;14.83;11.43;;;14.60;99.90;;;;;;4916841;29;20242;-70
2023/09/14 05:45:55;;;;;;;13.83;11.03;;;14.60;99.90;;;;;;4916702;29;20547;-70
2023/09/14 05:48:21;;;;;;;15.87;12.37;;;14.60;99.90;;;;;;4916648;29;20259;-70
2023/09/14 05:50:48;;;;;;;13.03;11.33;;;14.60;99.90;;;;;;4916423;29;20254;-70
2023/09/14 05:53:15;;;;;;;12.50;11.17;;;14.40;99.90;;;;;;4916720;29;20202;-70
2023/09/14 05:55:41;;;;;;;12.17;10.97;;;14.40;99.90;;;;;;4916510;29;20662;-69
2023/09/14 05:58:08;;;;;;;12.93;10.27;;;14.40;99.90;;;;;;4916494;29;20210;-69
2023/09/14 06:00:36;;;;;;;11.50;10.30;;;14.40;99.90;;;;;;4916396;29;20226;-69
2023/09/14 06:03:03;;;;;;;11.83;10.57;;;14.30;99.90;;;;;;4916597;29;20234;-69
2023/09/14 06:05:30;;;;;;;10.57;9.40;;;14.30;99.90;;;;;;4916294;29;20207;-69
2023/09/14 06:07:57;;;;;;;10.47;9.47;;;14.30;99.90;;;;;;4916086;29;20206;-69
2023/09/14 06:10:23;;;;;;;10.63;9.60;;;14.40;99.90;;;;;;4916464;29;20266;-69
2023/09/14 06:12:51;;;;;;;12.60;9.37;;;14.40;99.90;;;;;;4916527;29;20210;-69
2023/09/14 06:15:18;;;;;;;10.77;9.60;;;14.40;99.90;;;;;;4916289;29;20206;-70
2023/09/14 06:17:46;;;;;;;10.63;9.63;;;14.30;99.90;;;;;;4916114;29;20203;-69
2023/09/14 06:20:13;;;;;;;10.53;9.53;;;14.40;99.90;;;;;;4916442;29;20242;-69
2023/09/14 06:22:40;;;;;;;10.83;9.83;;;14.50;99.90;;;;;;4916283;29;20261;-69
2023/09/14 06:25:07;;;;;;;10.73;9.63;;;14.40;99.90;;;;;;4916181;29;20300;-70
2023/09/14 06:27:34;;;;;;;10.57;9.57;;;14.30;99.90;;;;;;4916362;29;20258;-70
2023/09/14 06:30:00;;;;;;;11.73;10.53;;;14.30;99.90;;;;;;4916323;29;20203;-69
2023/09/14 06:32:27;;;;;;;11.73;10.17;;;14.30;99.90;;;;;;4916145;29;20241;-69
2023/09/14 06:34:55;;;;;;;10.97;9.87;;;14.40;99.90;;;;;;4916341;29;20202;-70
2023/09/14 06:37:22;;;;;;;10.37;9.37;;;14.40;99.90;;;;;;4916333;29;20611;-69
2023/09/14 06:39:49;;;;;;;10.53;9.37;;;14.50;99.90;;;;;;4898218;29;20206;-69
2023/09/14 06:42:16;;;;;;;12.03;9.77;;;14.50;99.90;;;;;;4896330;29;20560;-69
2023/09/14 06:44:42;;;;;;;10.63;9.53;;;14.60;99.90;;;;;;4896567;29;20206;-70
2023/09/14 06:47:09;;;;;;;9.93;8.93;;;14.70;99.90;;;;;;4897042;29;20211;-69
2023/09/14 06:49:35;;;;;;;8.20;7.40;;;14.80;99.90;;;;;;4897001;29;20227;-69
2023/09/14 06:52:04;;;;;;;7.80;7.10;;;15.00;99.90;;;;;;4896959;29;20255;-70
2023/09/14 06:54:31;;;;;;;8.20;7.40;;;15.10;99.90;;;;;;4896895;29;20208;-69
2023/09/14 06:56:57;;;;;;;7.47;6.77;;;15.00;99.90;;;;;;4894607;29;20215;-69
2023/09/14 06:59:24;;;;;;;7.78;6.63;;;15.10;99.90;;;;;;4897075;29;20210;-69
2023/09/14 07:01:51;;;;;;;9.07;6.40;;;15.20;99.90;;;;;;4896948;29;20238;-69
2023/09/14 07:04:17;;;;;;;8.52;6.57;;;15.40;99.90;;;;;;4897143;29;20238;-69
2023/09/14 07:06:44;;;;;;;6.70;6.00;;;15.50;99.90;;;;;;4895925;29;20234;-69
2023/09/14 07:09:12;;;;;;;7.70;6.93;;;15.70;99.90;;;;;;4897241;29;20206;-70
2023/09/14 07:11:39;;;;;;;6.82;5.88;;;15.60;99.90;;;;;;4896955;29;20211;-70
2023/09/14 07:14:05;;;;;;;6.97;6.28;;;15.90;99.90;;;;;;4896945;29;20564;-70
2023/09/14 07:16:32;;;;;;;7.85;6.35;;;16.00;99.90;;;;;;4896962;29;20279;-70
2023/09/14 07:18:59;;;;;;;7.75;6.25;;;16.10;99.90;;;;;;4897090;29;20203;-69
2023/09/14 07:21:27;;;;;;;6.03;5.43;;;15.90;99.90;;;;;;4896693;29;20651;-71
2023/09/14 07:23:53;;;;;;;6.20;5.60;;;16.20;99.90;;;;;;4896800;29;20257;-69
2023/09/14 07:26:21;;;;;;;8.38;5.60;;;16.50;99.90;;;;;;4901087;29;20753;-69
2023/09/14 07:28:48;;;;;;;6.50;5.63;;;16.50;99.90;;;;;;4917547;29;20665;-69
2023/09/14 07:31:15;;;;;;;6.80;6.18;;;16.30;99.90;;;;;;4919285;29;20207;-71
2023/09/14 07:33:41;;;;;;;7.40;6.63;;;16.30;99.90;;;;;;4919066;29;20258;-69
2023/09/14 07:36:08;;;;;;;6.32;5.70;;;16.30;99.90;;;;;;4918835;29;20218;-69
2023/09/14 07:38:34;;;;;;;8.15;6.22;;;16.40;99.90;;;;;;4918078;29;20202;-69
2023/09/14 07:41:01;;;;;;;7.05;6.43;;;16.70;99.90;;;;;;4918786;29;20729;-69
2023/09/14 07:43:31;;;;;;;6.68;6.05;;;16.80;99.90;;;;;;4918567;29;20325;-69
2023/09/14 07:45:58;;;;;;;6.13;5.53;;;16.80;99.90;;;;;;4918783;29;20218;-71
2023/09/14 07:48:24;;;;;;;8.20;6.70;;;17.30;99.90;;;;;;4918859;29;20335;-69
2023/09/14 07:50:52;;;;;;;6.32;5.72;;;17.20;99.90;;;;;;4918641;29;20257;-69
2023/09/14 07:53:19;;;;;;;8.15;6.43;;;17.20;99.90;;;;;;4905568;29;20196;-69
2023/09/14 07:55:52;;;;;;;5.85;5.35;;;17.20;99.90;;;;;;4880865;29;20216;-68
2023/09/14 07:58:19;;;;;;;7.05;5.55;;;17.40;99.90;;;;;;4880907;29;20203;-68
2023/09/14 08:00:47;;;;;;;6.70;6.10;;;17.30;99.90;;;;;;4880666;29;20577;-69
2023/09/14 08:03:14;;;;;;;7.68;6.40;;;17.40;99.90;;;;;;4887485;29;20223;-68
2023/09/14 08:05:41;;;;;;;6.70;6.10;;;17.40;99.90;;;;;;4899275;29;20203;-68
2023/09/14 08:08:08;;;;;;;7.07;6.45;;;17.40;99.90;;;;;;4898113;29;20210;-68
2023/09/14 08:10:35;;;;;;;6.85;6.20;;;17.30;99.90;;;;;;4899508;29;20207;-68
2023/09/14 08:13:02;;;;;;;6.85;5.65;;;17.50;99.90;;;;;;4899399;29;20267;-68
2023/09/14 08:15:29;;;;;;;6.80;6.20;;;17.40;99.90;;;;;;4899479;29;20210;-68
2023/09/14 08:17:57;;;;;;;6.90;6.10;;;17.60;99.90;;;;;;4899173;29;20608;-68
2023/09/14 08:20:24;;;;;;;7.13;6.43;;;17.30;99.90;;;;;;4899127;29;20727;-68
2023/09/14 08:22:50;;;;;;;6.88;6.22;;;17.20;99.90;;;;;;4899008;29;20222;-68
2023/09/14 08:25:17;;;;;;;7.10;6.15;;;17.60;99.90;;;;;;4899359;29;20210;-69
2023/09/14 08:27:44;;;;;;;9.60;7.40;;;17.90;99.90;;;;;;4899300;29;20605;-69
2023/09/14 08:30:11;;;;;;;7.15;6.45;;;18.00;99.90;;;;;;4899244;29;20388;-69
2023/09/14 08:32:38;;;;;;;6.60;6.00;;;18.40;99.90;;;;;;4899222;29;20251;-69
2023/09/14 08:38:03;;;;;;;6.80;6.20;;;19.10;99.90;;;;;;5089342;27;20587;-68
2023/09/14 08:40:31;;;;;;;6.80;6.20;;;19.20;99.90;;;;;;5090062;28;20652;-68
2023/09/14 08:42:59;;;;;;;6.97;6.28;;;18.90;99.90;;;;;;5090179;28;20192;-68
2023/09/14 08:45:28;;;;;;;5.78;5.22;;;19.80;99.90;;;;;;5090056;28;20196;-68
2023/09/14 08:47:55;;;;;;;6.35;5.75;;;20.40;99.90;;;;;;5089837;28;20691;-68
2023/09/14 08:50:25;;;;;;;6.13;5.53;;;20.30;99.90;;;;;;5090135;28;20250;-69
2023/09/14 08:52:52;;;;;;;6.13;5.63;;;19.50;99.90;;;;;;5090110;28;20201;-69
2023/09/14 08:55:22;;;;;;;5.72;5.18;;;19.10;99.90;;;;;;5090014;28;20200;-70
2023/09/14 08:57:49;;;;;;;7.57;5.90;;;19.30;99.90;;;;;;5090332;28;20250;-69
2023/09/14 09:00:17;;;;;;;7.03;5.82;;;19.60;99.90;;;;;;5089669;28;20712;-70
2023/09/14 09:02:45;;;;;;;7.05;5.82;;;18.90;99.90;;;;;;5089979;28;20192;-69
2023/09/14 09:05:14;;;;;;;7.45;6.45;;;18.60;99.90;;;;;;5084722;28;20197;-70
2023/09/14 09:07:42;;;;;;;6.38;5.75;;;19.00;99.90;;;;;;5076932;28;20224;-69
2023/09/14 09:10:12;;;;;;;6.15;5.20;;;19.70;99.90;;;;;;5089206;28;20242;-73
2023/09/14 09:12:40;;;;;;;6.50;5.90;;;20.10;99.90;;;;;;5089126;28;20196;-68
2023/09/14 09:15:08;;;;;;;7.90;5.43;;;19.90;99.90;;;;;;5089470;28;20193;-69
2023/09/14 09:17:38;;;;;;;6.22;5.63;;;20.00;99.90;;;;;;5089385;28;20204;-69
2023/09/14 09:20:13;;;;;;;6.72;5.32;;;20.60;99.90;;;;;;5089553;28;20317;-68
2023/09/14 09:22:42;;;;;;;5.50;5.00;;;21.60;99.90;;;;;;5089285;28;20200;-68
2023/09/14 09:25:09;;;;;;;6.20;4.22;;;22.30;99.90;;;;;;5089405;28;20197;-68
2023/09/14 09:27:36;;;;;;;6.00;5.40;;;21.60;99.90;;;;;;5089296;28;20225;-68
2023/09/14 09:30:06;;;;;;;5.63;5.13;;;20.90;99.90;;;;;;5089402;28;20212;-68
2023/09/14 09:32:32;;;;;;;5.40;4.90;;;19.80;99.90;;;;;;5089020;28;20200;-68
2023/09/14 09:35:15;;;;;;;7.32;5.45;;;19.80;99.90;;;;;;5088866;28;20226;-67
2023/09/14 09:37:42;;;;;;;5.32;4.82;;;20.40;99.90;;;;;;5088726;28;20277;-68
2023/09/14 09:40:13;;;;;;;5.45;4.35;;;20.90;99.90;;;;;;5088899;28;20197;-68
2023/09/14 09:42:39;;;;;;;5.65;5.15;;;21.50;99.90;;;;;;5089032;28;20197;-68
2023/09/14 09:45:09;;;;;;;5.28;4.75;;;21.10;99.90;;;;;;5088932;28;20279;-67
2023/09/14 09:47:36;;;;;;;5.80;4.80;;;21.60;99.90;;;;;;5085197;28;20224;-67
2023/09/14 09:50:06;;;;;;;5.10;4.65;;;21.40;99.90;;;;;;5075364;28;20205;-67
2023/09/14 09:52:33;;;;;;;5.45;4.30;;;21.70;99.90;;;;;;5075615;28;20246;-67
2023/09/14 09:55:00;;;;;;;4.95;4.38;;;22.00;99.90;;;;;;5075365;28;20283;-68
2023/09/14 09:57:30;;;;;;;6.75;4.75;;;21.80;99.90;;;;;;5075113;28;20193;-67
2023/09/14 09:59:55;;;;;;;4.85;4.40;;;22.10;99.90;;;;;;5075219;28;20205;-68
2023/09/14 10:02:31;;;;;;;5.05;3.92;;;22.90;99.90;;;;;;5075156;28;20379;-67
2023/09/14 10:04:58;;;;;;;4.32;3.90;;;23.20;99.90;;;;;;5075073;28;20226;-68
2023/09/14 10:07:25;;;;;;;5.28;4.88;;;24.10;99.90;;;;;;5075094;28;20225;-68
2023/09/14 10:09:53;;;;;;;5.88;4.50;;;24.20;99.90;;;;;;5075044;28;20193;-67
2023/09/14 10:12:24;;;;;;;6.63;4.57;;;23.60;99.90;;;;;;5074653;28;20197;-68
2023/09/14 10:14:52;;;;;;;4.70;4.30;;;23.50;99.90;;;;;;5076208;28;20197;-68
2023/09/14 10:17:23;;;;;;;4.93;4.43;;;23.50;99.90;;;;;;5059348;28;20196;-69
2023/09/14 10:19:52;;;;;;;4.60;3.80;;;22.90;99.90;;;;;;5074846;28;20328;-69
2023/09/14 10:22:20;;;;;;;5.85;4.00;;;23.50;99.90;;;;;;5074854;28;20224;-69
2023/09/14 10:24:47;;;;;;;4.43;4.03;;;24.90;99.90;;;;;;5074572;28;20668;-69
2023/09/14 10:27:15;;;;;;;4.57;4.18;;;25.10;99.90;;;;;;5074264;28;20232;-69
2023/09/14 10:29:43;;;;;;;4.78;4.22;;;25.00;99.50;;;;;;5074472;28;20201;-70
2023/09/14 10:32:11;;;;;;;5.55;4.30;;;24.80;99.10;;;;;;5074773;28;20197;-69
2023/09/14 10:34:39;;;;;;;5.05;4.55;;;24.50;99.90;;;;;;5074564;28;20197;-69
2023/09/14 10:37:09;;;;;;;6.25;4.40;;;25.20;98.90;;;;;;5074329;28;20229;-69
2023/09/14 10:39:37;;;;;;;3.67;3.38;;;24.70;98.40;;;;;;5074197;28;20670;-68
2023/09/14 10:42:04;;;;;;;5.00;4.38;;;24.00;99.10;;;;;;5074118;28;20258;-69
2023/09/14 10:44:32;;;;;;;4.22;3.83;;;23.20;99.30;;;;;;5074109;28;20262;-69
2023/09/14 10:47:02;;;;;;;4.03;3.53;;;23.30;99.90;;;;;;5073862;28;20228;-71
2023/09/14 10:49:32;;;;;;;3.95;3.60;;;25.10;99.00;;;;;;5074153;28;20612;-69
2023/09/14 10:52:00;;;;;;;5.72;3.92;;;25.70;97.80;;;;;;5074190;28;20196;-70
2023/09/14 10:54:30;;;;;;;4.28;3.88;;;25.40;96.60;;;;;;5074113;28;20205;-69
2023/09/14 10:56:58;;;;;;;4.55;3.83;;;25.00;97.20;;;;;;5073958;28;20533;-69
2023/09/14 10:59:49;;;;;;;4.45;3.92;;;25.00;96.80;;;;;;5073191;28;20247;-69
2023/09/14 11:02:49;;;;;;;3.95;3.65;;;24.70;97.80;;;;;;5074056;28;20291;-70
2023/09/14 11:05:17;;;;;;;5.13;4.63;;;24.80;96.90;;;;;;5073791;28;20201;-69
2023/09/14 11:07:47;;;;;;;4.47;4.07;;;23.90;98.00;;;;;;5073820;28;20319;-69
2023/09/14 11:10:18;;;;;;;5.65;4.60;;;24.50;98.20;;;;;;5073969;28;20205;-69
2023/09/14 11:12:44;;;;;;;5.13;4.50;;;24.40;96.30;;;;;;5074009;28;20201;-69
2023/09/14 11:15:15;;;;;;;4.82;4.30;;;24.10;96.60;;;;;;5073794;28;20226;-69
2023/09/14 11:17:42;;;;;;;6.72;4.78;;;23.80;96.30;;;;;;5073695;28;20212;-69
2023/09/14 11:20:40;;;;;;;5.55;4.20;;;23.50;96.70;;;;;;5073890;28;20256;-69
2023/09/14 11:23:09;;;;;;;4.78;4.00;;;25.10;96.60;;;;;;5073729;28;20201;-70
2023/09/14 11:25:41;;;;;;;3.95;3.65;;;26.50;94.00;;;;;;5073400;28;20205;-69
2023/09/14 11:28:08;;;;;;;4.10;3.70;;;28.80;91.70;;;;;;5073350;28;20220;-71
2023/09/14 11:30:42;;;;;;;4.00;3.60;;;29.60;88.90;;;;;;5073695;28;20254;-70
2023/09/14 11:33:10;;;;;;;3.70;3.30;;;30.20;83.10;;;;;;5073102;28;20287;-70
2023/09/14 11:35:39;;;;;;;4.05;3.10;;;30.20;81.60;;;;;;5073085;28;20636;-70
2023/09/14 11:38:16;;;;;;;5.47;3.10;;;31.40;80.60;;;;;;5073130;28;20246;-69
2023/09/14 11:40:44;;;;;;;3.45;3.15;;;32.60;75.70;;;;;;5072985;28;20199;-69
2023/09/14 11:43:25;;;;;;;3.83;2.72;;;31.30;71.80;;;;;;5073298;28;20204;-70
2023/09/14 11:45:56;;;;;;;3.10;2.80;;;32.10;74.10;;;;;;5073028;28;20586;-70
2023/09/14 11:48:23;;;;;;;3.10;2.80;;;32.50;69.30;;;;;;5073141;28;20602;-70
2023/09/14 11:50:53;;;;;;;3.95;3.20;;;32.70;66.80;;;;;;5073244;28;20201;-70
2023/09/14 11:53:22;;;;;;;2.80;2.60;;;32.80;65.50;;;;;;5073286;28;20286;-70
2023/09/14 11:55:51;;;;;;;2.97;2.70;;;31.70;64.80;;;;;;5073155;28;20200;-69
2023/09/14 11:58:18;;;;;;;4.28;3.75;;;29.20;67.90;;;;;;5073194;28;20249;-69
2023/09/14 12:00:47;;;;;;;3.58;3.03;;;27.70;71.00;;;;;;5072954;28;20201;-69
2023/09/14 12:03:14;;;;;;;3.92;3.63;;;27.00;72.90;;;;;;5072985;28;20204;-69
2023/09/14 12:05:41;;;;;;;6.22;5.72;;;26.50;75.50;;;;;;5072768;28;20648;-70
2023/09/14 12:08:10;;;;;;;6.13;5.63;;;28.50;73.60;;;;;;5072914;28;20235;-70
2023/09/14 12:10:36;;;;;;;3.40;3.10;;;29.70;69.20;;;;;;5072642;28;20219;-69
2023/09/14 12:13:13;;;;;;;4.03;3.05;;;30.90;67.20;;;;;;5072873;28;20338;-69
2023/09/14 12:15:42;;;;;;;3.20;2.90;;;33.10;64.40;;;;;;5072830;28;20192;-69
2023/09/14 12:18:10;;;;;;;3.17;2.83;;;34.60;59.90;;;;;;5072638;28;20197;-70
2023/09/14 12:20:39;;;;;;;7.35;3.58;;;35.70;56.20;;;;;;5072808;28;20291;-70
2023/09/14 12:23:07;;;;;;;4.28;3.20;;;35.40;52.20;;;;;;5072857;28;20246;-69
2023/09/14 12:25:34;;;;;;;4.10;2.63;;;33.90;52.70;;;;;;5072886;28;20200;-70
2023/09/14 12:28:03;;;;;;;3.50;2.65;;;34.80;53.30;;;;;;5072596;28;20216;-70
2023/09/14 12:30:32;;;;;;;3.22;2.70;;;33.90;51.90;;;;;;5072584;28;20238;-70
2023/09/14 12:33:00;;;;;;;4.28;3.00;;;34.50;50.50;;;;;;5072395;28;20724;-70
2023/09/14 12:35:27;;;;;;;3.90;2.80;;;34.60;51.20;;;;;;5072547;28;20193;-73
2023/09/14 12:37:59;;;;;;;3.05;2.42;;;35.10;49.70;;;;;;5072246;28;20716;-71
2023/09/14 12:40:26;;;;;;;5.68;2.95;;;34.70;50.00;;;;;;5072579;28;20253;-72
2023/09/14 12:42:53;;;;;;;3.38;2.85;;;33.00;50.80;;;;;;5072647;28;20200;-69
2023/09/14 12:45:20;;;;;;;3.83;3.10;;;33.60;52.10;;;;;;5072402;28;20204;-69